Wetterdaten: aktuell Donnerstag, 20.06.2019 11:10
Datum Zeit Temp. A. Feuchte A. Luftdruck Regen Wind Richtung Richtung Taupunkt Windchill Windben Empfang
20.06.2019 11:10 25,4 C 57 % 1012,8 hPa 0,0 l/m 8,9 km/h (2 Bft) W 277 16,2 C 24,8 C 11,3 km/h (2 Bft) 100 %
20.06.2019 11:08 25,3 C 57 % 1012,9 hPa 0,0 l/m 9,0 km/h (2 Bft) W-NW 297 16,2 C 24,7 C 16,1 km/h (3 Bft) 100 %
20.06.2019 11:06 25,5 C 58 % 1012,9 hPa 0,0 l/m 6,6 km/h (2 Bft) W-SW 251 16,6 C 25,5 C 16,1 km/h (3 Bft) 100 %
20.06.2019 11:04 25,3 C 55 % 1012,9 hPa 0,0 l/m 5,1 km/h (1 Bft) SW 222 15,6 C 25,3 C 8,0 km/h (2 Bft) 100 %
20.06.2019 11:02 25,4 C 55 % 1012,9 hPa 0,0 l/m 7,9 km/h (2 Bft) SW 224 15,7 C 25,0 C 12,9 km/h (3 Bft) 100 %
20.06.2019 11:00 25,3 C 56 % 1012,9 hPa 0,0 l/m 12,3 km/h (3 Bft) SW 230 15,9 C 24,1 C 16,1 km/h (3 Bft) 97 %
20.06.2019 10:58 25,4 C 61 % 1013,0 hPa 0,0 l/m 3,3 km/h (1 Bft) W-SW 258 17,3 C 25,4 C 12,9 km/h (3 Bft) 100 %
20.06.2019 10:56 25,2 C 57 % 1013,0 hPa 0,0 l/m 6,0 km/h (2 Bft) W 260 16,1 C 25,2 C 9,7 km/h (2 Bft) 100 %
20.06.2019 10:54 25,2 C 61 % 1013,0 hPa 0,0 l/m 5,8 km/h (2 Bft) W-NW 290 17,1 C 25,2 C 8,0 km/h (2 Bft) 100 %
20.06.2019 10:52 24,9 C 57 % 1013,0 hPa 0,0 l/m 3,7 km/h (1 Bft) W-SW 255 15,8 C 24,9 C 6,4 km/h (2 Bft) 100 %
20.06.2019 10:50 24,8 C 57 % 1013,0 hPa 0,0 l/m 2,6 km/h (1 Bft) W-NW 300 15,7 C 24,8 C 8,0 km/h (2 Bft) 100 %
20.06.2019 10:48 24,7 C 58 % 1013,1 hPa 0,0 l/m 7,6 km/h (2 Bft) W 281 15,9 C 24,4 C 12,9 km/h (3 Bft) 100 %
20.06.2019 10:46 24,7 C 57 % 1013,0 hPa 0,0 l/m 9,7 km/h (2 Bft) W-SW 243 15,6 C 23,9 C 17,7 km/h (3 Bft) 100 %
20.06.2019 10:44 24,6 C 58 % 1013,1 hPa 0,0 l/m 3,6 km/h (1 Bft) W-SW 247 15,8 C 24,6 C 8,0 km/h (2 Bft) 100 %
20.06.2019 10:42 24,3 C 60 % 1013,1 hPa 0,0 l/m 7,0 km/h (2 Bft) W 280 16,0 C 24,1 C 11,3 km/h (2 Bft) 98 %
20.06.2019 10:40 24,2 C 59 % 1013,0 hPa 0,0 l/m 9,7 km/h (2 Bft) W 266 15,7 C 23,3 C 12,9 km/h (3 Bft) 98 %
20.06.2019 10:38 24,2 C 59 % 1013,1 hPa 0,0 l/m 11,9 km/h (2 Bft) W 260 15,7 C 22,9 C 20,9 km/h (4 Bft) 98 %
20.06.2019 10:36 24,3 C 59 % 1013,1 hPa 0,0 l/m 9,3 km/h (2 Bft) SW 218 15,8 C 23,5 C 17,7 km/h (3 Bft) 100 %
20.06.2019 10:34 24,2 C 61 % 1013,0 hPa 0,0 l/m 5,1 km/h (1 Bft) W 259 16,2 C 24,2 C 11,3 km/h (2 Bft) 98 %
20.06.2019 10:32 24,2 C 58 % 1013,1 hPa 0,0 l/m 12,4 km/h (3 Bft) W 271 15,4 C 22,8 C 17,7 km/h (3 Bft) 100 %
20.06.2019 10:30 24,3 C 60 % 1013,2 hPa 0,0 l/m 10,5 km/h (2 Bft) SW 229 16,0 C 23,3 C 20,9 km/h (4 Bft) 100 %
20.06.2019 10:28 24,4 C 57 % 1013,1 hPa 0,0 l/m 9,6 km/h (2 Bft) W 273 15,3 C 23,6 C 14,5 km/h (3 Bft) 100 %
20.06.2019 10:26 24,3 C 57 % 1013,0 hPa 0,0 l/m 8,6 km/h (2 Bft) W-NW 285 15,2 C 23,7 C 12,9 km/h (3 Bft) 100 %
20.06.2019 10:24 24,4 C 56 % 1013,1 hPa 0,0 l/m 10,9 km/h (2 Bft) W 259 15,0 C 23,3 C 16,1 km/h (3 Bft) 100 %
20.06.2019 10:22 24,4 C 59 % 1013,1 hPa 0,0 l/m 8,7 km/h (2 Bft) W 281 15,9 C 23,8 C 14,5 km/h (3 Bft) 100 %
20.06.2019 10:20 24,3 C 59 % 1013,1 hPa 0,0 l/m 8,6 km/h (2 Bft) W 281 15,8 C 23,7 C 16,1 km/h (3 Bft) 100 %
20.06.2019 10:18 24,4 C 57 % 1013,1 hPa 0,0 l/m 11,5 km/h (2 Bft) W-NW 297 15,3 C 23,2 C 17,7 km/h (3 Bft) 100 %
20.06.2019 10:16 24,6 C 58 % 1013,0 hPa 0,0 l/m 8,7 km/h (2 Bft) W 264 15,8 C 24,0 C 19,3 km/h (3 Bft) 100 %
20.06.2019 10:14 24,4 C 60 % 1013,0 hPa 0,0 l/m 4,6 km/h (1 Bft) S-SW 213 16,1 C 24,4 C 8,0 km/h (2 Bft) 100 %
20.06.2019 10:12 24,3 C 56 % 1013,1 hPa 0,0 l/m 6,6 km/h (2 Bft) W-SW 245 14,9 C 24,3 C 12,9 km/h (3 Bft) 100 %
20.06.2019 10:10 24,1 C 58 % 1013,1 hPa 0,0 l/m 8,4 km/h (2 Bft) S-SW 212 15,3 C 23,6 C 12,9 km/h (3 Bft) 100 %
_ Min-Zeit 03:54 10:04 00:00 - 00:04 - - 04:54 04:44 00:04 05:14
Minimum _ 15,1 C 55 % 1010,6 hPa - 0,0 km/h (0 Bft) - - 12,6 C 11,9 C 0,0 km/h (0 Bft) 93 %
_ Max-Zeit 11:06 03:56 08:56 00:00 04:44 - - 10:58 11:06 08:40 00:00
Maximum _ 25,5 C 88 % 1013,3 hPa 0,0 l/m 15,8 km/h
W-SW (3 Bft)
- - 17,3 C 25,5 C 24,1 km/h
SW (4 Bft)
100 %
Durchschnitt _ 19,2 C 73 % 1012,0 hPa #0,0 l/m 4,4 km/h (1 Bft) SW - 14,1 C 18,9 C 7,5 km/h (2 Bft) 100 %